createdAt,value
2016-09-22T00:00:35.071Z,0
2016-09-22T00:01:34.718Z,0
2016-09-22T00:02:34.489Z,0
2016-09-22T00:03:34.160Z,0
2016-09-22T00:04:33.816Z,0
2016-09-22T00:05:33.827Z,0
2016-09-22T00:06:34.079Z,0
2016-09-22T00:07:34.071Z,0
2016-09-22T00:08:34.274Z,0
2016-09-22T00:09:33.978Z,0
2016-09-22T00:10:34.044Z,0
2016-09-22T00:11:34.424Z,0
2016-09-22T00:12:34.372Z,0
2016-09-22T00:13:34.042Z,0
2016-09-22T00:14:34.029Z,0
2016-09-22T00:15:34.334Z,0
2016-09-22T00:16:33.638Z,0
2016-09-22T00:17:33.937Z,0
2016-09-22T00:18:33.618Z,0
2016-09-22T00:19:33.920Z,0
2016-09-22T00:20:33.918Z,0
2016-09-22T00:21:33.584Z,0
2016-09-22T00:22:33.563Z,0
2016-09-22T00:23:33.563Z,0
2016-09-22T00:24:33.565Z,0
2016-09-22T00:25:33.540Z,0
2016-09-22T00:26:33.529Z,0
2016-09-22T00:27:33.515Z,0
2016-09-22T00:28:33.504Z,0
2016-09-22T00:29:33.503Z,0
2016-09-22T00:30:33.812Z,0
2016-09-22T00:31:33.477Z,0
2016-09-22T00:32:33.827Z,0
2016-09-22T00:33:33.456Z,0
2016-09-22T00:34:34.071Z,0
2016-09-22T00:35:33.424Z,0
2016-09-22T00:36:33.411Z,0
2016-09-22T00:37:33.406Z,0
2016-09-22T00:38:33.584Z,0
2016-09-22T00:39:33.690Z,0
2016-09-22T00:40:33.364Z,0
2016-09-22T00:41:33.662Z,0
2016-09-22T00:42:33.338Z,0
2016-09-22T00:43:33.330Z,0
2016-09-22T00:44:33.319Z,0
2016-09-22T00:45:33.307Z,0
2016-09-22T00:46:33.298Z,0
2016-09-22T00:47:33.283Z,0
2016-09-22T00:48:33.271Z,0
2016-09-22T00:49:33.265Z,0
2016-09-22T00:50:33.555Z,0
2016-09-22T00:51:33.238Z,0
2016-09-22T00:52:33.217Z,0
2016-09-22T00:53:33.217Z,0
2016-09-22T00:54:33.197Z,0
2016-09-22T00:55:33.187Z,0
2016-09-22T00:56:33.178Z,0
2016-09-22T00:57:33.479Z,0
2016-09-22T00:58:33.488Z,0
2016-09-22T00:59:33.142Z,0
2016-09-22T01:00:33.129Z,0
2016-09-22T01:01:33.122Z,0
2016-09-22T01:02:33.425Z,0
2016-09-22T01:03:33.106Z,0
2016-09-22T01:04:33.090Z,0
2016-09-22T01:05:33.087Z,0
2016-09-22T01:06:33.067Z,0
2016-09-22T01:07:33.053Z,0
2016-09-22T01:08:33.036Z,0
2016-09-22T01:09:33.031Z,0
2016-09-22T01:10:33.338Z,0
2016-09-22T01:11:33.000Z,0
2016-09-22T01:12:33.307Z,0
2016-09-22T01:13:32.979Z,0
2016-09-22T01:14:33.276Z,0
2016-09-22T01:15:32.958Z,0
2016-09-22T01:16:32.942Z,0
2016-09-22T01:17:32.931Z,0
2016-09-22T01:18:32.927Z,0
2016-09-22T01:19:32.907Z,0
2016-09-22T01:20:33.210Z,0
2016-09-22T01:21:32.895Z,0
2016-09-22T01:22:33.187Z,0
2016-09-22T01:23:32.865Z,0
2016-09-22T01:24:33.174Z,0
2016-09-22T01:25:32.831Z,0
2016-09-22T01:26:32.823Z,0
2016-09-22T01:27:32.827Z,0
2016-09-22T01:28:33.110Z,0
2016-09-22T01:29:32.789Z,0
2016-09-22T01:30:32.784Z,0
2016-09-22T01:31:33.077Z,0
2016-09-22T01:32:33.069Z,0
2016-09-22T01:33:32.733Z,0
2016-09-22T01:34:32.736Z,0
2016-09-22T01:35:32.727Z,0
2016-09-22T01:36:32.709Z,0
2016-09-22T01:37:32.695Z,0
2016-09-22T01:38:32.683Z,0
2016-09-22T01:39:32.679Z,0
2016-09-22T01:40:32.654Z,0
2016-09-22T01:41:32.960Z,0
2016-09-22T01:42:32.641Z,0
2016-09-22T01:43:32.633Z,0
2016-09-22T01:44:32.930Z,0
2016-09-22T01:45:32.909Z,0
2016-09-22T01:46:32.614Z,0
2016-09-22T01:47:32.903Z,0
2016-09-22T01:48:32.570Z,0
2016-09-22T01:49:32.553Z,0
2016-09-22T01:50:32.545Z,0
2016-09-22T01:51:32.530Z,0
2016-09-22T01:52:32.512Z,0
2016-09-22T01:53:32.523Z,0
2016-09-22T01:54:32.807Z,0
2016-09-22T01:55:32.479Z,0
2016-09-22T01:56:32.463Z,0
2016-09-22T01:57:32.460Z,0
2016-09-22T01:58:32.762Z,0
2016-09-22T01:59:32.432Z,0
2016-09-22T02:00:32.419Z,0
2016-09-22T02:01:32.406Z,0
2016-09-22T02:02:32.399Z,0
2016-09-22T02:03:32.378Z,0
2016-09-22T02:04:32.373Z,0
2016-09-22T02:05:32.363Z,0
2016-09-22T02:06:32.664Z,0
2016-09-22T02:07:32.335Z,0
2016-09-22T02:08:32.324Z,0
2016-09-22T02:09:32.829Z,0
2016-09-22T02:10:32.623Z,0
2016-09-22T02:11:32.293Z,0
2016-09-22T02:12:32.605Z,0
2016-09-22T02:13:32.297Z,0
2016-09-22T02:14:32.299Z,0
2016-09-22T02:15:32.253Z,0
2016-09-22T02:16:32.558Z,0
2016-09-22T02:17:32.537Z,0
2016-09-22T02:18:32.556Z,0
2016-09-22T02:19:32.189Z,0
2016-09-22T02:20:32.177Z,0
2016-09-22T02:21:32.163Z,0
2016-09-22T02:22:32.159Z,0
2016-09-22T02:23:32.460Z,0
2016-09-22T02:24:32.755Z,0
2016-09-22T02:25:32.124Z,0
2016-09-22T02:26:32.743Z,0
2016-09-22T02:27:32.095Z,0
2016-09-22T02:28:32.081Z,0
2016-09-22T02:29:32.090Z,0
2016-09-22T02:30:32.071Z,0
2016-09-22T02:31:32.051Z,0
2016-09-22T02:32:32.354Z,0
2016-09-22T02:33:32.968Z,0
2016-09-22T02:34:32.015Z,0
2016-09-22T02:35:32.308Z,0
2016-09-22T02:36:31.988Z,0
2016-09-22T02:37:32.605Z,0
2016-09-22T02:38:32.483Z,0
2016-09-22T02:39:31.948Z,0
2016-09-22T02:40:31.939Z,0
2016-09-22T02:41:31.927Z,0
2016-09-22T02:42:32.232Z,0
2016-09-22T02:43:31.902Z,0
2016-09-22T02:44:31.917Z,0
2016-09-22T02:45:32.522Z,0
2016-09-22T02:46:31.868Z,0
2016-09-22T02:47:31.869Z,0
2016-09-22T02:48:31.857Z,0
2016-09-22T02:49:31.849Z,0
2016-09-22T02:50:31.829Z,0
2016-09-22T02:51:31.808Z,0
2016-09-22T02:52:31.811Z,0
2016-09-22T02:53:31.778Z,0
2016-09-22T02:54:31.781Z,0
2016-09-22T02:55:31.763Z,0
2016-09-22T02:56:31.758Z,0
2016-09-22T02:57:32.047Z,0
2016-09-22T02:58:31.719Z,0
2016-09-22T02:59:32.029Z,0
2016-09-22T03:00:32.010Z,0
2016-09-22T03:01:31.701Z,0
2016-09-22T03:02:31.670Z,0
2016-09-22T03:03:31.673Z,0
2016-09-22T03:04:31.655Z,0
2016-09-22T03:05:31.946Z,0
2016-09-22T03:06:31.937Z,0
2016-09-22T03:07:32.254Z,0
2016-09-22T03:08:31.656Z,0
2016-09-22T03:09:31.981Z,0
2016-09-22T03:10:32.569Z,0
2016-09-22T03:11:32.196Z,0
2016-09-22T03:12:31.543Z,0
2016-09-22T03:13:31.559Z,0
2016-09-22T03:14:32.170Z,0
2016-09-22T03:15:31.524Z,0
2016-09-22T03:16:32.138Z,0
2016-09-22T03:17:31.822Z,0
2016-09-22T03:18:31.792Z,0
2016-09-22T03:19:31.823Z,0
2016-09-22T03:20:31.453Z,0
2016-09-22T03:21:31.444Z,0
2016-09-22T03:22:31.745Z,0
2016-09-22T03:23:31.427Z,0
2016-09-22T03:24:31.722Z,0
2016-09-22T03:25:32.355Z,0
2016-09-22T03:26:31.692Z,0
2016-09-22T03:27:32.009Z,0
2016-09-22T03:28:31.993Z,0
2016-09-22T03:29:31.355Z,0
2016-09-22T03:30:31.958Z,0
2016-09-22T03:31:31.316Z,0
2016-09-22T03:32:31.632Z,0
2016-09-22T03:33:31.920Z,0
2016-09-22T03:34:31.294Z,0
2016-09-22T03:35:31.267Z,0
2016-09-22T03:36:31.264Z,0
2016-09-22T03:37:31.251Z,0
2016-09-22T03:38:31.236Z,0
2016-09-22T03:39:31.237Z,0
2016-09-22T03:40:31.201Z,0
2016-09-22T03:41:31.197Z,0
2016-09-22T03:42:31.492Z,0
2016-09-22T03:43:31.477Z,0
2016-09-22T03:44:31.467Z,0
2016-09-22T03:45:31.457Z,0
2016-09-22T03:46:31.138Z,0
2016-09-22T03:47:31.118Z,0
2016-09-22T03:48:31.105Z,0
2016-09-22T03:49:31.099Z,0
2016-09-22T03:50:31.084Z,0
2016-09-22T03:51:31.382Z,0
2016-09-22T03:52:31.377Z,0
2016-09-22T03:53:31.044Z,0
2016-09-22T03:54:31.348Z,0
2016-09-22T03:55:31.329Z,0
2016-09-22T03:56:31.017Z,0
2016-09-22T03:57:30.993Z,0
2016-09-22T03:58:31.003Z,0
2016-09-22T03:59:30.996Z,0
2016-09-22T04:00:30.951Z,0
2016-09-22T04:01:31.254Z,0
2016-09-22T04:02:30.932Z,0
2016-09-22T04:03:30.923Z,0
2016-09-22T04:04:30.904Z,0
2016-09-22T04:05:30.900Z,0
2016-09-22T04:06:30.881Z,0
2016-09-22T04:07:30.863Z,0
2016-09-22T04:08:31.483Z,0
2016-09-22T04:09:31.159Z,0
2016-09-22T04:10:31.172Z,0
2016-09-22T04:11:31.129Z,0
2016-09-22T04:12:31.127Z,0
2016-09-22T04:13:31.108Z,0
2016-09-22T04:14:30.775Z,0
2016-09-22T04:15:30.764Z,0
2016-09-22T04:16:30.749Z,0
2016-09-22T04:17:30.738Z,0
2016-09-22T04:18:31.039Z,0
2016-09-22T04:19:30.713Z,0
2016-09-22T04:20:30.699Z,0
2016-09-22T04:21:30.688Z,0
2016-09-22T04:22:30.683Z,0
2016-09-22T04:23:30.706Z,0
2016-09-22T04:24:30.676Z,0
2016-09-22T04:25:30.971Z,0
2016-09-22T04:26:30.626Z,0
2016-09-22T04:27:31.248Z,0
2016-09-22T04:28:31.225Z,0
2016-09-22T04:29:30.586Z,0
2016-09-22T04:30:30.574Z,0
2016-09-22T04:31:30.561Z,0
2016-09-22T04:32:30.866Z,0
2016-09-22T04:33:30.533Z,0
2016-09-22T04:34:30.517Z,0
2016-09-22T04:35:30.559Z,0
2016-09-22T04:36:30.812Z,0
2016-09-22T04:37:30.496Z,0
2016-09-22T04:38:30.671Z,0
2016-09-22T04:39:30.449Z,0
2016-09-22T04:40:30.446Z,0
2016-09-22T04:41:30.434Z,0
2016-09-22T04:42:30.735Z,0
2016-09-22T04:43:30.404Z,0
2016-09-22T04:44:30.391Z,0
2016-09-22T04:45:31.402Z,0
2016-09-22T04:46:31.033Z,0
2016-09-22T04:47:31.003Z,0
2016-09-22T04:48:30.345Z,0
2016-09-22T04:49:30.645Z,0
2016-09-22T04:50:30.316Z,0
2016-09-22T04:51:30.305Z,0
2016-09-22T04:52:30.602Z,0
2016-09-22T04:53:30.905Z,0
2016-09-22T04:54:30.262Z,0
2016-09-22T04:55:30.247Z,0
2016-09-22T04:56:30.239Z,0
2016-09-22T04:57:30.233Z,0
2016-09-22T04:58:30.214Z,0
2016-09-22T04:59:30.203Z,0
2016-09-22T05:00:30.518Z,0
2016-09-22T05:01:30.181Z,0
2016-09-22T05:02:30.171Z,0
2016-09-22T05:03:30.783Z,0
2016-09-22T05:04:30.131Z,0
2016-09-22T05:05:30.773Z,0
2016-09-22T05:06:30.115Z,0
2016-09-22T05:07:30.425Z,0
2016-09-22T05:08:30.086Z,0
2016-09-22T05:09:30.068Z,0
2016-09-22T05:10:30.057Z,0
2016-09-22T05:11:30.042Z,0
2016-09-22T05:12:30.036Z,0
2016-09-22T05:13:30.021Z,0
2016-09-22T05:14:30.635Z,0
2016-09-22T05:15:29.994Z,0
2016-09-22T05:16:29.989Z,0
2016-09-22T05:17:29.968Z,0
2016-09-22T05:18:29.990Z,0
2016-09-22T05:19:29.965Z,0
2016-09-22T05:20:30.896Z,5
2016-09-22T05:21:29.931Z,5
2016-09-22T05:22:29.945Z,5
2016-09-22T05:23:30.516Z,5
2016-09-22T05:24:29.886Z,5
2016-09-22T05:25:30.181Z,5
2016-09-22T05:26:30.176Z,5
2016-09-22T05:27:29.842Z,5
2016-09-22T05:28:29.833Z,5
2016-09-22T05:29:29.811Z,5
2016-09-22T05:30:29.802Z,5
2016-09-22T05:31:29.788Z,10
2016-09-22T05:32:30.407Z,10
2016-09-22T05:33:29.762Z,10
2016-09-22T05:34:30.086Z,10
2016-09-22T05:35:29.737Z,10
2016-09-22T05:36:29.741Z,10
2016-09-22T05:37:30.026Z,10
2016-09-22T05:38:29.701Z,10
2016-09-22T05:39:30.004Z,10
2016-09-22T05:40:29.670Z,10
2016-09-22T05:41:29.977Z,10
2016-09-22T05:42:29.962Z,10
2016-09-22T05:43:29.645Z,15
2016-09-22T05:44:29.621Z,15
2016-09-22T05:45:29.924Z,15
2016-09-22T05:46:29.916Z,15
2016-09-22T05:47:29.588Z,15
2016-09-22T05:48:29.571Z,15
2016-09-22T05:49:29.566Z,15
2016-09-22T05:50:29.559Z,15
2016-09-22T05:51:29.847Z,15
2016-09-22T05:52:29.524Z,15
2016-09-22T05:53:29.503Z,20
2016-09-22T05:54:29.510Z,20
2016-09-22T05:55:29.799Z,20
2016-09-22T05:56:29.474Z,20
2016-09-22T05:57:29.771Z,20
2016-09-22T05:58:29.449Z,20
2016-09-22T05:59:29.753Z,20
2016-09-22T06:00:29.419Z,20
2016-09-22T06:01:29.406Z,25
2016-09-22T06:02:29.385Z,25
2016-09-22T06:03:29.600Z,25
2016-09-22T06:04:30.011Z,25
2016-09-22T06:05:29.366Z,25
2016-09-22T06:06:29.342Z,25
2016-09-22T06:07:29.636Z,25
2016-09-22T06:08:29.944Z,30
2016-09-22T06:09:29.616Z,30
2016-09-22T06:10:29.288Z,30
2016-09-22T06:11:29.277Z,30
2016-09-22T06:12:29.269Z,30
2016-09-22T06:13:29.571Z,30
2016-09-22T06:14:29.240Z,30
2016-09-22T06:15:29.233Z,30
2016-09-22T06:16:29.217Z,30
2016-09-22T06:17:29.510Z,30
2016-09-22T06:18:29.502Z,35
2016-09-22T06:19:29.190Z,35
2016-09-22T06:20:29.201Z,35
2016-09-22T06:21:29.482Z,40
2016-09-22T06:22:29.470Z,40
2016-09-22T06:23:29.130Z,40
2016-09-22T06:24:29.432Z,40
2016-09-22T06:25:29.423Z,45
2016-09-22T06:26:29.094Z,45
2016-09-22T06:27:29.400Z,40
2016-09-22T06:28:29.380Z,40
2016-09-22T06:29:29.049Z,40
2016-09-22T06:30:29.973Z,40
2016-09-22T06:31:29.023Z,40
2016-09-22T06:32:29.011Z,40
2016-09-22T06:33:29.005Z,45
2016-09-22T06:34:28.991Z,45
2016-09-22T06:35:29.290Z,45
2016-09-22T06:36:29.279Z,50
2016-09-22T06:37:29.263Z,50
2016-09-22T06:38:29.462Z,50
2016-09-22T06:39:28.945Z,50
2016-09-22T06:40:29.561Z,50
2016-09-22T06:41:29.221Z,55
2016-09-22T06:42:29.257Z,55
2016-09-22T06:43:28.872Z,55
2016-09-22T06:44:29.179Z,55
2016-09-22T06:45:29.173Z,55
2016-09-22T06:46:28.843Z,55
2016-09-22T06:47:29.139Z,55
2016-09-22T06:48:28.831Z,60
2016-09-22T06:49:28.817Z,60
2016-09-22T06:50:28.786Z,60
2016-09-22T06:51:29.465Z,60
2016-09-22T06:52:28.766Z,65
2016-09-22T06:53:28.765Z,65
2016-09-22T06:54:28.749Z,65
2016-09-22T06:55:28.770Z,65
2016-09-22T06:56:29.046Z,65
2016-09-22T06:57:29.343Z,65
2016-09-22T06:58:28.710Z,65
2016-09-22T06:59:28.684Z,70
2016-09-22T07:00:28.679Z,70
2016-09-22T07:01:28.660Z,70
2016-09-22T07:02:28.970Z,70
2016-09-22T07:03:29.281Z,70
2016-09-22T07:04:28.942Z,70
2016-09-22T07:05:28.941Z,70
2016-09-22T07:06:28.615Z,70
2016-09-22T07:07:28.603Z,75
2016-09-22T07:08:28.909Z,75
2016-09-22T07:09:28.579Z,75
2016-09-22T07:10:28.559Z,75
2016-09-22T07:11:28.555Z,75
2016-09-22T07:12:28.527Z,75
2016-09-22T07:13:28.522Z,75
2016-09-22T07:14:28.512Z,75
2016-09-22T07:15:28.500Z,80
2016-09-22T07:16:28.482Z,80
2016-09-22T07:17:28.471Z,80
2016-09-22T07:18:28.780Z,80
2016-09-22T07:19:29.076Z,80
2016-09-22T07:20:28.435Z,80
2016-09-22T07:21:28.744Z,80
2016-09-22T07:22:28.417Z,80
2016-09-22T07:23:28.412Z,80
2016-09-22T07:24:28.392Z,80
2016-09-22T07:25:28.696Z,85
2016-09-22T07:26:28.368Z,85
2016-09-22T07:27:28.369Z,85
2016-09-22T07:28:28.668Z,85
2016-09-22T07:29:28.649Z,85
2016-09-22T07:30:28.330Z,85
2016-09-22T07:31:28.317Z,85
2016-09-22T07:32:28.305Z,85
2016-09-22T07:33:28.297Z,85
2016-09-22T07:34:28.277Z,85
2016-09-22T07:35:28.591Z,85
2016-09-22T07:36:28.580Z,85
2016-09-22T07:37:29.203Z,85
2016-09-22T07:38:28.247Z,85
2016-09-22T07:39:28.236Z,85
2016-09-22T07:40:28.533Z,85
2016-09-22T07:41:28.239Z,85
2016-09-22T07:42:28.198Z,90
2016-09-22T07:43:28.508Z,90
2016-09-22T07:44:28.172Z,90
2016-09-22T07:45:28.477Z,90
2016-09-22T07:46:28.185Z,90
2016-09-22T07:47:28.565Z,90
2016-09-22T07:48:28.140Z,90
2016-09-22T07:49:28.447Z,95
2016-09-22T07:50:28.436Z,95
2016-09-22T07:51:28.112Z,95
2016-09-22T07:52:28.086Z,95
2016-09-22T07:53:28.389Z,95
2016-09-22T07:54:28.403Z,95
2016-09-22T07:55:28.066Z,100
2016-09-22T07:56:28.050Z,100
2016-09-22T07:57:28.665Z,105
2016-09-22T07:58:28.032Z,105
2016-09-22T07:59:28.025Z,105
2016-09-22T08:00:28.017Z,105
2016-09-22T08:01:28.316Z,105
2016-09-22T08:02:27.998Z,105
2016-09-22T08:03:27.979Z,105
2016-09-22T08:04:27.972Z,110
2016-09-22T08:05:27.961Z,125
2016-09-22T08:06:27.951Z,250
2016-09-22T08:07:27.943Z,150
2016-09-22T08:08:27.928Z,150
2016-09-22T08:09:27.925Z,140
2016-09-22T08:10:28.541Z,120
2016-09-22T08:11:28.223Z,115
2016-09-22T08:12:28.216Z,115
2016-09-22T08:13:27.898Z,115
2016-09-22T08:14:27.869Z,115
2016-09-22T08:15:27.866Z,120
2016-09-22T08:16:27.861Z,125
2016-09-22T08:17:27.851Z,125
2016-09-22T08:18:27.841Z,125
2016-09-22T08:19:28.150Z,120
2016-09-22T08:20:27.839Z,120
2016-09-22T08:21:27.821Z,115
2016-09-22T08:22:28.123Z,115
2016-09-22T08:23:27.798Z,115
2016-09-22T08:24:28.105Z,120
2016-09-22T08:25:28.099Z,120
2016-09-22T08:26:28.085Z,120
2016-09-22T08:27:27.772Z,125
2016-09-22T08:28:27.753Z,125
2016-09-22T08:29:27.748Z,120
2016-09-22T08:30:28.055Z,120
2016-09-22T08:31:28.041Z,125
2016-09-22T08:32:27.719Z,120
2016-09-22T08:33:28.028Z,120
2016-09-22T08:34:28.019Z,125
2016-09-22T08:35:27.700Z,125
2016-09-22T08:36:27.701Z,125
2016-09-22T08:37:28.313Z,125
2016-09-22T08:38:28.079Z,125
2016-09-22T08:39:27.658Z,125
2016-09-22T08:40:27.963Z,125
2016-09-22T08:41:27.664Z,130
2016-09-22T08:42:27.960Z,130
2016-09-22T08:43:27.631Z,135
2016-09-22T08:44:27.936Z,130
2016-09-22T08:45:27.815Z,135
2016-09-22T08:46:27.921Z,135
2016-09-22T08:47:27.592Z,140
2016-09-22T08:48:27.592Z,140
2016-09-22T08:49:27.585Z,140
2016-09-22T08:50:27.585Z,145
2016-09-22T08:51:27.880Z,145
2016-09-22T08:52:27.561Z,155
2016-09-22T08:53:27.883Z,145
2016-09-22T08:54:27.584Z,150
2016-09-22T08:55:27.534Z,150
2016-09-22T08:56:27.521Z,145
2016-09-22T08:57:27.528Z,145
2016-09-22T08:58:27.507Z,145
2016-09-22T08:59:27.813Z,145
2016-09-22T09:00:27.494Z,150
2016-09-22T09:01:27.491Z,155
2016-09-22T09:02:27.475Z,150
2016-09-22T09:03:27.461Z,150
2016-09-22T09:04:27.465Z,150
2016-09-22T09:05:27.454Z,150
2016-09-22T09:06:27.769Z,150
2016-09-22T09:07:27.445Z,150
2016-09-22T09:08:27.429Z,145
2016-09-22T09:09:27.418Z,140
2016-09-22T09:10:27.433Z,135
2016-09-22T09:11:27.397Z,135
2016-09-22T09:12:27.395Z,140
2016-09-22T09:13:27.697Z,140
2016-09-22T09:14:27.692Z,140
2016-09-22T09:15:27.375Z,145
2016-09-22T09:16:27.670Z,150
2016-09-22T09:17:27.374Z,150
2016-09-22T09:18:27.663Z,150
2016-09-22T09:19:27.657Z,155
2016-09-22T09:20:27.346Z,165
2016-09-22T09:21:27.332Z,155
2016-09-22T09:22:27.946Z,160
2016-09-22T09:23:27.626Z,160
2016-09-22T09:24:27.620Z,160
2016-09-22T09:25:27.616Z,165
2016-09-22T09:26:27.294Z,165
2016-09-22T09:27:27.910Z,160
2016-09-22T09:28:27.271Z,160
2016-09-22T09:29:27.269Z,160
2016-09-22T09:30:27.890Z,160
2016-09-22T09:31:27.583Z,155
2016-09-22T09:32:27.250Z,160
2016-09-22T09:33:27.356Z,155
2016-09-22T09:34:27.233Z,155
2016-09-22T09:35:27.554Z,160
2016-09-22T09:36:27.541Z,160
2016-09-22T09:37:27.207Z,160
2016-09-22T09:38:27.512Z,160
2016-09-22T09:39:27.513Z,165
2016-09-22T09:40:27.505Z,165
2016-09-22T09:41:27.185Z,165
2016-09-22T09:42:27.178Z,170
2016-09-22T09:43:27.168Z,175
2016-09-22T09:44:27.161Z,180
2016-09-22T09:45:27.156Z,180
2016-09-22T09:46:27.474Z,175
2016-09-22T09:47:27.134Z,175
2016-09-22T09:48:27.130Z,170
2016-09-22T09:49:27.122Z,165
2016-09-22T09:50:27.123Z,165
2016-09-22T09:51:27.421Z,165
2016-09-22T09:52:27.105Z,175
2016-09-22T09:53:27.093Z,225
2016-09-22T09:54:27.086Z,270
2016-09-22T09:55:27.397Z,215
2016-09-22T09:56:27.381Z,245
2016-09-22T09:57:27.070Z,210
2016-09-22T09:58:27.374Z,190
2016-09-22T09:59:27.054Z,195
2016-09-22T10:00:27.046Z,195
2016-09-22T10:01:27.042Z,195
2016-09-22T10:02:27.037Z,195
2016-09-22T10:03:27.027Z,200
2016-09-22T10:04:27.338Z,195
2016-09-22T10:05:27.340Z,200
2016-09-22T10:06:27.013Z,200
2016-09-22T10:07:27.001Z,200
2016-09-22T10:08:27.430Z,205
2016-09-22T10:09:26.991Z,210
2016-09-22T10:10:27.301Z,220
2016-09-22T10:11:26.984Z,225
2016-09-22T10:12:26.988Z,230
2016-09-22T10:13:27.593Z,235
2016-09-22T10:14:26.962Z,330
2016-09-22T10:15:26.958Z,305
2016-09-22T10:16:27.301Z,290
2016-09-22T10:17:26.943Z,250
2016-09-22T10:18:27.281Z,240
2016-09-22T10:19:27.243Z,245
2016-09-22T10:20:26.922Z,255
2016-09-22T10:21:26.910Z,270
2016-09-22T10:22:26.905Z,285
2016-09-22T10:23:26.899Z,275
2016-09-22T10:24:27.228Z,275
2016-09-22T10:25:27.519Z,280
2016-09-22T10:26:26.878Z,280
2016-09-22T10:27:27.224Z,285
2016-09-22T10:28:27.200Z,280
2016-09-22T10:29:26.873Z,285
2016-09-22T10:30:26.863Z,295
2016-09-22T10:31:26.864Z,300
2016-09-22T10:32:26.851Z,300
2016-09-22T10:33:26.839Z,320
2016-09-22T10:34:27.156Z,325
2016-09-22T10:35:27.682Z,330
2016-09-22T10:36:27.490Z,340
2016-09-22T10:37:27.453Z,360
2016-09-22T10:38:26.816Z,475
2016-09-22T10:39:26.809Z,400
2016-09-22T10:40:26.826Z,525
2016-09-22T10:41:27.134Z,365
2016-09-22T10:42:26.800Z,450
2016-09-22T10:43:27.108Z,400
2016-09-22T10:44:27.413Z,465
2016-09-22T10:45:27.007Z,465
2016-09-22T10:46:26.776Z,400
2016-09-22T10:47:27.295Z,365
2016-09-22T10:48:27.094Z,390
2016-09-22T10:49:26.772Z,370
2016-09-22T10:50:27.081Z,380
2016-09-22T10:51:27.374Z,385
2016-09-22T10:52:26.763Z,385
2016-09-22T10:53:26.759Z,450
2016-09-22T10:54:26.782Z,505
2016-09-22T10:55:26.733Z,665
2016-09-22T10:56:26.932Z,650
2016-09-22T10:57:27.040Z,620
2016-09-22T10:58:26.915Z,555
2016-09-22T10:59:27.026Z,490
2016-09-22T11:00:27.655Z,445
2016-09-22T11:01:27.036Z,470
2016-09-22T11:02:27.555Z,510
2016-09-22T11:03:26.716Z,390
2016-09-22T11:04:27.331Z,430
2016-09-22T11:05:26.995Z,415
2016-09-22T11:06:27.001Z,415
2016-09-22T11:07:26.901Z,465
2016-09-22T11:08:26.991Z,440
2016-09-22T11:09:27.056Z,420
2016-09-22T11:10:27.622Z,440
2016-09-22T11:11:26.853Z,435
2016-09-22T11:12:26.699Z,430
2016-09-22T11:13:26.668Z,435
2016-09-22T11:14:26.665Z,370
2016-09-22T11:15:26.639Z,460
2016-09-22T11:16:26.953Z,440
2016-09-22T11:17:26.636Z,460
2016-09-22T11:18:26.957Z,470
2016-09-22T11:19:26.647Z,540
2016-09-22T11:20:27.241Z,475
2016-09-22T11:21:27.241Z,675
2016-09-22T11:22:26.923Z,670
2016-09-22T11:23:27.232Z,525
2016-09-22T11:24:26.591Z,480
2016-09-22T11:25:26.909Z,465
2016-09-22T11:26:26.627Z,545
2016-09-22T11:27:27.555Z,440
2016-09-22T11:28:27.213Z,465
2016-09-22T11:29:27.210Z,530
2016-09-22T11:30:27.157Z,465
2016-09-22T11:31:26.569Z,850
2016-09-22T11:32:26.589Z,535
2016-09-22T11:33:26.885Z,610
2016-09-22T11:34:26.560Z,1295
2016-09-22T11:35:26.576Z,1105
2016-09-22T11:36:27.147Z,1240
2016-09-22T11:37:26.566Z,895
2016-09-22T11:38:26.871Z,845
2016-09-22T11:39:26.541Z,1095
2016-09-22T11:40:26.866Z,980
2016-09-22T11:41:27.168Z,950
2016-09-22T11:42:26.563Z,1075
2016-09-22T11:43:27.169Z,720
2016-09-22T11:44:26.565Z,780
2016-09-22T11:45:26.546Z,685
2016-09-22T11:46:27.170Z,745
2016-09-22T11:47:26.527Z,865
2016-09-22T11:48:27.472Z,1065
2016-09-22T11:49:26.551Z,1025
2016-09-22T11:50:26.728Z,1015
2016-09-22T11:51:26.512Z,1180
2016-09-22T11:52:26.514Z,1210
2016-09-22T11:53:26.518Z,1155
2016-09-22T11:54:26.824Z,1145
2016-09-22T11:55:26.817Z,945
2016-09-22T11:56:26.503Z,1140
2016-09-22T11:57:26.806Z,1040
2016-09-22T11:58:26.516Z,1175
2016-09-22T11:59:26.488Z,1195
2016-09-22T12:00:26.488Z,1235
2016-09-22T12:01:26.805Z,1225
2016-09-22T12:02:26.822Z,1430
2016-09-22T12:03:26.808Z,1510
2016-09-22T12:04:27.190Z,1450
2016-09-22T12:05:27.130Z,1445
2016-09-22T12:06:26.791Z,1365
2016-09-22T12:07:26.794Z,1380
2016-09-22T12:08:26.488Z,1475
2016-09-22T12:09:26.478Z,1445
2016-09-22T12:10:26.505Z,1355
2016-09-22T12:11:26.559Z,1295
2016-09-22T12:12:26.821Z,1155
2016-09-22T12:13:26.497Z,1195
2016-09-22T12:14:26.486Z,1010
2016-09-22T12:15:26.481Z,1090
2016-09-22T12:16:27.123Z,1135
2016-09-22T12:17:26.513Z,1345
2016-09-22T12:18:26.789Z,1355
2016-09-22T12:19:26.490Z,1150
2016-09-22T12:20:26.476Z,990
2016-09-22T12:21:26.479Z,1155
2016-09-22T12:22:27.103Z,1110
2016-09-22T12:23:26.792Z,1115
2016-09-22T12:24:26.479Z,1200
2016-09-22T12:25:26.496Z,1270
2016-09-22T12:26:26.493Z,1245
2016-09-22T12:27:26.490Z,1240
2016-09-22T12:28:26.485Z,1230
2016-09-22T12:29:26.479Z,1185
2016-09-22T12:30:26.484Z,1190
2016-09-22T12:31:26.499Z,1160
2016-09-22T12:32:26.800Z,1190
2016-09-22T12:33:26.514Z,1105
2016-09-22T12:34:26.803Z,1025
2016-09-22T12:35:26.503Z,895
2016-09-22T12:36:26.509Z,915
2016-09-22T12:37:26.487Z,960
2016-09-22T12:38:26.813Z,895
2016-09-22T12:39:26.749Z,1055
2016-09-22T12:40:26.494Z,975
2016-09-22T12:41:26.494Z,895
2016-09-22T12:42:26.802Z,810
2016-09-22T12:43:26.494Z,700
2016-09-22T12:44:26.491Z,790
2016-09-22T12:45:26.494Z,1000
2016-09-22T12:46:26.494Z,1065
2016-09-22T12:47:26.503Z,1090
2016-09-22T12:48:26.818Z,1070
2016-09-22T12:49:26.830Z,1160
2016-09-22T12:50:26.801Z,1200
2016-09-22T12:51:26.491Z,1155
2016-09-22T12:52:26.495Z,1035
2016-09-22T12:53:26.497Z,1065
2016-09-22T12:54:26.818Z,1075
2016-09-22T12:55:27.040Z,1110
2016-09-22T12:56:26.831Z,1145
2016-09-22T12:57:27.156Z,1145
2016-09-22T12:58:26.829Z,1175
2016-09-22T12:59:26.517Z,1150
2016-09-22T13:00:26.826Z,1190
2016-09-22T13:01:27.177Z,1100
2016-09-22T13:02:26.495Z,1105
2016-09-22T13:03:26.496Z,1150
2016-09-22T13:04:27.410Z,1225
2016-09-22T13:05:26.841Z,1070
2016-09-22T13:06:26.502Z,1155
2016-09-22T13:07:26.813Z,1075
2016-09-22T13:08:26.819Z,1120
2016-09-22T13:09:26.812Z,1075
2016-09-22T13:10:27.443Z,1050
2016-09-22T13:11:26.509Z,1080
2016-09-22T13:12:26.503Z,1110
2016-09-22T13:13:26.705Z,1155
2016-09-22T13:14:26.566Z,1240
2016-09-22T13:15:26.499Z,1250
2016-09-22T13:16:26.509Z,1255
2016-09-22T13:17:26.825Z,1215
2016-09-22T13:18:26.809Z,1220
2016-09-22T13:19:26.526Z,1205
2016-09-22T13:20:26.502Z,1240
2016-09-22T13:21:26.502Z,1240
2016-09-22T13:22:26.503Z,1270
2016-09-22T13:23:26.817Z,1175
2016-09-22T13:24:26.499Z,1120
2016-09-22T13:25:26.495Z,955
2016-09-22T13:26:26.812Z,1045
2016-09-22T13:27:26.500Z,1080
2016-09-22T13:28:26.505Z,1100
2016-09-22T13:29:26.819Z,940
2016-09-22T13:30:27.148Z,850
2016-09-22T13:31:26.820Z,795
2016-09-22T13:32:27.442Z,790
2016-09-22T13:33:26.822Z,790
2016-09-22T13:34:26.505Z,780
2016-09-22T13:35:26.515Z,780
2016-09-22T13:36:27.133Z,755
2016-09-22T13:37:26.529Z,695
2016-09-22T13:38:27.136Z,740
2016-09-22T13:39:26.525Z,790
2016-09-22T13:40:26.515Z,785
2016-09-22T13:41:26.512Z,815
2016-09-22T13:42:26.829Z,735
2016-09-22T13:43:26.826Z,640
2016-09-22T13:44:26.515Z,630
2016-09-22T13:45:26.503Z,585
2016-09-22T13:46:26.535Z,550
2016-09-22T13:47:26.513Z,510
2016-09-22T13:48:26.527Z,500
2016-09-22T13:49:26.834Z,545
2016-09-22T13:50:26.510Z,585
2016-09-22T13:51:26.508Z,625
2016-09-22T13:52:26.813Z,675
2016-09-22T13:53:26.509Z,680
2016-09-22T13:54:26.505Z,690
2016-09-22T13:55:26.519Z,710
2016-09-22T13:56:26.515Z,690
2016-09-22T13:57:26.831Z,655
2016-09-22T13:58:27.123Z,605
2016-09-22T13:59:26.564Z,585
2016-09-22T14:00:26.505Z,530
2016-09-22T14:01:26.829Z,495
2016-09-22T14:02:26.818Z,510
2016-09-22T14:03:26.814Z,530
2016-09-22T14:04:26.816Z,535
2016-09-22T14:05:26.814Z,615
2016-09-22T14:06:26.802Z,600
2016-09-22T14:07:27.131Z,565
2016-09-22T14:08:26.483Z,560
2016-09-22T14:09:26.487Z,515
2016-09-22T14:10:26.489Z,470